Time;durP1;ratioP1;P1;durP2;ratioP2;P2;SDS_P1;SDS_P2;PMS_P1;PMS_P2;Temp;Humidity;BMP_temperature;BMP_pressure;BME280_temperature;BME280_humidity;BME280_pressure;Samples;Min_cycle;Max_cycle;Signal;HPM_P1;HPM_P2
2023/02/19 00:01:25;;;;;;;1.60;1.40;;;16.90;51.20;;;;;;5013105;28;20519;-66
2023/02/19 00:03:54;;;;;;;1.87;1.63;;;16.90;51.20;;;;;;5012929;28;21001;-66
2023/02/19 00:06:21;;;;;;;1.73;1.50;;;16.90;51.20;;;;;;5013096;28;20432;-66
2023/02/19 00:08:46;;;;;;;1.70;1.43;;;16.90;51.20;;;;;;5012992;28;20753;-66
2023/02/19 00:11:18;;;;;;;1.90;1.60;;;16.90;51.20;;;;;;5012611;28;20423;-64
2023/02/19 00:13:46;;;;;;;1.87;1.70;;;16.90;51.20;;;;;;5012337;28;20173;-67
2023/02/19 00:16:18;;;;;;;1.47;1.37;;;16.90;51.10;;;;;;5012616;28;20928;-66
2023/02/19 00:18:45;;;;;;;2.63;1.50;;;16.90;51.20;;;;;;5012675;28;20414;-66
2023/02/19 00:21:12;;;;;;;1.40;1.30;;;16.90;51.20;;;;;;5012511;28;20431;-66
2023/02/19 00:23:37;;;;;;;1.87;1.43;;;16.90;51.20;;;;;;5012211;28;20451;-64
2023/02/19 00:26:08;;;;;;;1.63;1.30;;;16.90;51.20;;;;;;5012525;28;20769;-66
2023/02/19 00:28:34;;;;;;;1.93;1.57;;;16.90;51.20;;;;;;5012466;28;20185;-66
2023/02/19 00:31:07;;;;;;;1.80;1.70;;;16.90;51.20;;;;;;5012427;28;20404;-66
2023/02/19 00:33:33;;;;;;;2.00;1.70;;;16.90;51.20;;;;;;5012425;28;20177;-68
2023/02/19 00:36:04;;;;;;;2.20;1.70;;;16.90;51.20;;;;;;5011944;28;20525;-68
2023/02/19 00:38:30;;;;;;;1.60;1.30;;;16.90;51.20;;;;;;5012182;28;20169;-64
2023/02/19 00:40:58;;;;;;;1.60;1.50;;;16.90;51.10;;;;;;5012077;28;20439;-66
2023/02/19 00:43:24;;;;;;;1.60;1.50;;;16.90;51.20;;;;;;5010731;28;20418;-66
2023/02/19 00:45:50;;;;;;;2.10;1.70;;;16.90;51.20;;;;;;5012460;28;20419;-66
2023/02/19 00:48:15;;;;;;;1.60;1.50;;;16.90;51.20;;;;;;5012206;28;20255;-64
2023/02/19 00:50:41;;;;;;;2.10;1.60;;;16.90;51.20;;;;;;5010837;28;20180;-66
2023/02/19 00:53:06;;;;;;;2.43;1.60;;;16.90;51.20;;;;;;5012128;28;20534;-66
2023/02/19 00:55:32;;;;;;;1.90;1.73;;;16.90;51.20;;;;;;5012111;28;20169;-64
2023/02/19 00:57:57;;;;;;;1.97;1.40;;;16.90;51.10;;;;;;5011501;28;20172;-64
2023/02/19 01:00:23;;;;;;;1.50;1.40;;;16.90;51.20;;;;;;5011445;28;20207;-65
2023/02/19 01:02:48;;;;;;;1.80;1.50;;;16.90;51.20;;;;;;5011507;28;20191;-67
2023/02/19 01:05:14;;;;;;;1.80;1.33;;;16.90;51.20;;;;;;5011663;28;20608;-67
2023/02/19 01:07:40;;;;;;;1.60;1.33;;;16.80;51.10;;;;;;5011139;28;20172;-66
2023/02/19 01:10:05;;;;;;;1.60;1.40;;;16.80;51.10;;;;;;5011594;28;20537;-65
2023/02/19 01:12:31;;;;;;;2.00;1.80;;;16.80;51.10;;;;;;5011606;28;20310;-65
2023/02/19 01:14:57;;;;;;;1.40;1.30;;;16.80;51.10;;;;;;5011735;28;20914;-66
2023/02/19 01:17:23;;;;;;;2.20;1.73;;;16.80;51.10;;;;;;5011354;28;20179;-66
2023/02/19 01:19:49;;;;;;;2.20;1.40;;;16.80;51.10;;;;;;5011581;28;20176;-66
2023/02/19 01:22:14;;;;;;;2.00;1.40;;;16.80;51.10;;;;;;5011170;28;20522;-64
2023/02/19 01:24:40;;;;;;;4.03;1.60;;;16.80;51.10;;;;;;5011608;28;20211;-64
2023/02/19 01:27:05;;;;;;;1.47;1.30;;;16.80;51.10;;;;;;5011360;28;20168;-64
2023/02/19 01:29:31;;;;;;;1.70;1.57;;;16.80;51.10;;;;;;5011328;28;20173;-64
2023/02/19 01:31:57;;;;;;;1.70;1.30;;;16.80;51.10;;;;;;5011163;28;20591;-64
2023/02/19 01:34:22;;;;;;;1.87;1.77;;;16.80;51.10;;;;;;5011021;28;20211;-64
2023/02/19 01:36:48;;;;;;;1.33;1.23;;;16.80;51.10;;;;;;5011357;28;20172;-64
2023/02/19 01:39:13;;;;;;;1.53;1.23;;;16.80;51.10;;;;;;5011731;28;20176;-64
2023/02/19 01:41:40;;;;;;;2.03;1.60;;;16.80;51.10;;;;;;5010923;28;20215;-64
2023/02/19 01:44:27;;;;;;;1.60;1.47;;;16.80;51.10;;;;;;5009882;28;20571;-64
2023/02/19 01:46:56;;;;;;;2.30;1.53;;;16.80;51.10;;;;;;5010877;28;20499;-64
2023/02/19 01:49:31;;;;;;;1.70;1.57;;;16.80;51.10;;;;;;5011193;28;20400;-67
2023/02/19 01:52:12;;;;;;;1.50;1.40;;;16.80;51.10;;;;;;5010896;28;20431;-67
2023/02/19 01:54:41;;;;;;;1.77;1.57;;;16.80;51.10;;;;;;5010970;28;20422;-67
2023/02/19 01:57:15;;;;;;;2.20;1.77;;;16.80;51.10;;;;;;5010902;28;20467;-67
2023/02/19 01:59:42;;;;;;;1.60;1.47;;;16.80;51.70;;;;;;5011199;28;20892;-67
2023/02/19 02:02:08;;;;;;;2.30;1.60;;;16.80;51.10;;;;;;5010929;28;20465;-68
2023/02/19 02:04:34;;;;;;;1.63;1.53;;;16.80;51.10;;;;;;5010560;28;20523;-67
2023/02/19 02:07:02;;;;;;;1.43;1.30;;;16.80;51.10;;;;;;5010760;28;20403;-67
2023/02/19 02:12:14;;;;;;;2.00;1.63;;;16.80;51.20;;;;;;5011021;28;20427;-67
2023/02/19 02:14:44;;;;;;;1.83;1.43;;;16.80;51.10;;;;;;5010686;28;20415;-67
2023/02/19 02:17:30;;;;;;;1.50;1.40;;;16.80;51.10;;;;;;5010934;28;20180;-66
2023/02/19 02:20:01;;;;;;;1.53;1.43;;;16.80;51.10;;;;;;5012517;28;20468;-66
2023/02/19 02:22:36;;;;;;;1.90;1.67;;;16.80;51.20;;;;;;5014305;28;20446;-67
2023/02/19 02:25:20;;;;;;;1.70;1.43;;;16.70;51.10;;;;;;5014175;28;20546;-67
2023/02/19 02:28:24;;;;;;;1.93;1.77;;;16.70;51.10;;;;;;5014341;28;20403;-66
2023/02/19 02:31:03;;;;;;;2.47;1.63;;;16.70;51.20;;;;;;5014158;28;20444;-67
2023/02/19 02:33:34;;;;;;;2.13;1.70;;;16.70;51.20;;;;;;5014178;28;20400;-66
2023/02/19 02:36:11;;;;;;;1.70;1.60;;;16.70;51.10;;;;;;5012543;28;20475;-66
2023/02/19 02:38:41;;;;;;;1.50;1.40;;;16.70;51.20;;;;;;5012702;28;20816;-67
2023/02/19 02:41:07;;;;;;;1.93;1.80;;;16.70;51.20;;;;;;5013671;28;20431;-66
2023/02/19 02:43:33;;;;;;;1.67;1.50;;;16.70;51.20;;;;;;5013732;28;20451;-66
2023/02/19 02:45:59;;;;;;;1.83;1.57;;;16.70;51.70;;;;;;5012448;28;20825;-66
2023/02/19 02:48:30;;;;;;;2.70;1.60;;;16.70;51.20;;;;;;5013822;28;20265;-67
2023/02/19 02:51:03;;;;;;;1.80;1.23;;;16.70;51.10;;;;;;5014221;28;20176;-65
2023/02/19 02:56:30;;;;;;;1.60;1.50;;;16.70;51.10;;;;;;5014310;28;20411;-65
2023/02/19 02:58:59;;;;;;;1.70;1.37;;;16.70;51.20;;;;;;5013809;28;20412;-68
2023/02/19 03:07:39;;;;;;;2.20;1.80;;;16.70;51.20;;;;;;5013691;28;20395;-65
2023/02/19 03:10:11;;;;;;;1.90;1.53;;;16.70;51.20;;;;;;5014023;28;20427;-65
2023/02/19 03:20:58;;;;;;;2.43;1.43;;;16.70;51.20;;;;;;5013627;28;20407;-66
2023/02/19 03:26:16;;;;;;;1.50;1.40;;;16.70;51.20;;;;;;5013659;28;20958;-65
2023/02/19 03:31:31;;;;;;;2.30;1.73;;;16.60;51.10;;;;;;5012950;28;20560;-67
2023/02/19 03:34:00;;;;;;;2.10;1.63;;;16.70;51.20;;;;;;5013334;28;20416;-68
2023/02/19 03:36:34;;;;;;;1.40;1.30;;;16.70;51.20;;;;;;5013262;28;20796;-67
2023/02/19 03:39:06;;;;;;;1.80;1.53;;;16.70;51.20;;;;;;5013553;28;20415;-67
2023/02/19 03:42:02;;;;;;;1.63;1.53;;;16.70;51.20;;;;;;5012875;28;20462;-67
2023/02/19 03:44:36;;;;;;;1.80;1.70;;;16.70;51.20;;;;;;5012968;28;20546;-67
2023/02/19 03:47:29;;;;;;;2.10;1.50;;;16.60;51.10;;;;;;5012876;28;20792;-67
2023/02/19 03:50:16;;;;;;;1.80;1.40;;;16.70;51.20;;;;;;5012850;28;20461;-67
2023/02/19 03:53:03;;;;;;;2.60;1.80;;;16.60;51.10;;;;;;5013365;28;20446;-67
2023/02/19 03:55:35;;;;;;;1.67;1.57;;;16.60;51.10;;;;;;5012836;28;20818;-67
2023/02/19 03:58:10;;;;;;;1.47;1.30;;;16.60;51.10;;;;;;5012738;28;20403;-65
2023/02/19 04:00:39;;;;;;;2.40;2.20;;;16.60;51.10;;;;;;5012376;28;20451;-65
2023/02/19 04:03:24;;;;;;;1.70;1.60;;;16.60;51.10;;;;;;5012498;28;20431;-65
2023/02/19 04:05:57;;;;;;;2.03;1.40;;;16.60;51.10;;;;;;5012278;28;20416;-65
2023/02/19 04:08:25;;;;;;;1.60;1.50;;;16.60;51.10;;;;;;5012225;28;20411;-65
2023/02/19 04:10:52;;;;;;;4.53;1.80;;;16.60;51.10;;;;;;5012240;28;20403;-65
2023/02/19 04:13:34;;;;;;;1.87;1.27;;;16.60;51.10;;;;;;5012455;28;20435;-65
2023/02/19 04:16:06;;;;;;;2.00;1.47;;;16.60;51.10;;;;;;5012484;28;20411;-65
2023/02/19 04:18:36;;;;;;;1.90;1.30;;;16.60;51.10;;;;;;5012532;28;20404;-65
2023/02/19 04:21:04;;;;;;;1.90;1.40;;;16.60;51.10;;;;;;5011963;28;20403;-65
2023/02/19 04:23:36;;;;;;;1.73;1.53;;;16.60;51.10;;;;;;5012014;28;20411;-65
2023/02/19 04:26:02;;;;;;;1.73;1.50;;;16.60;51.10;;;;;;5012304;28;20430;-65
2023/02/19 04:28:28;;;;;;;1.60;1.50;;;16.60;51.10;;;;;;5012649;28;20426;-65
2023/02/19 04:30:54;;;;;;;1.50;1.30;;;16.60;51.10;;;;;;5011909;28;20412;-65
2023/02/19 04:33:19;;;;;;;1.57;1.47;;;16.60;51.10;;;;;;5011788;28;20259;-66
2023/02/19 04:35:45;;;;;;;2.10;1.33;;;16.60;51.10;;;;;;5011813;28;20169;-68
2023/02/19 04:38:12;;;;;;;1.50;1.40;;;16.60;51.10;;;;;;5011344;28;20653;-67
2023/02/19 04:40:38;;;;;;;2.27;1.70;;;16.60;51.10;;;;;;5012234;28;20169;-67
2023/02/19 04:43:03;;;;;;;2.63;1.40;;;16.60;51.10;;;;;;5012049;28;21066;-65
2023/02/19 04:45:29;;;;;;;1.27;1.17;;;16.60;51.10;;;;;;5011712;28;20231;-67
2023/02/19 04:47:56;;;;;;;2.67;1.30;;;16.60;51.10;;;;;;5011769;28;20211;-65
2023/02/19 04:50:22;;;;;;;1.80;1.30;;;16.60;51.00;;;;;;5012012;28;20650;-65
2023/02/19 04:52:48;;;;;;;1.40;1.27;;;16.60;51.00;;;;;;5012008;28;20461;-67
2023/02/19 04:55:13;;;;;;;1.60;1.30;;;16.60;51.00;;;;;;5010805;28;20188;-68
2023/02/19 04:57:39;;;;;;;1.40;1.30;;;16.60;51.00;;;;;;5012241;28;20195;-68
2023/02/19 05:00:05;;;;;;;1.10;1.00;;;16.60;51.10;;;;;;5012150;28;20181;-68
2023/02/19 05:02:32;;;;;;;1.80;1.20;;;16.60;51.10;;;;;;5011373;28;20200;-65
2023/02/19 05:04:58;;;;;;;1.20;1.03;;;16.60;51.00;;;;;;5010951;28;20524;-68
2023/02/19 05:07:23;;;;;;;1.47;1.33;;;16.60;51.00;;;;;;5011828;28;20172;-67
2023/02/19 05:09:49;;;;;;;1.60;1.50;;;16.60;51.00;;;;;;5011887;28;20313;-67
2023/02/19 05:12:14;;;;;;;1.23;1.13;;;16.60;51.00;;;;;;5011746;28;20662;-68
2023/02/19 05:14:40;;;;;;;1.30;1.20;;;16.60;51.60;;;;;;5011639;28;20176;-66
2023/02/19 05:17:05;;;;;;;1.30;1.10;;;16.60;51.00;;;;;;5010142;28;20176;-67
2023/02/19 05:19:31;;;;;;;1.20;1.10;;;16.60;51.00;;;;;;5011556;28;20183;-66
2023/02/19 05:21:57;;;;;;;1.50;1.30;;;16.60;51.00;;;;;;5011510;28;20261;-66
2023/02/19 05:24:23;;;;;;;1.40;1.17;;;16.60;51.00;;;;;;5011401;28;20197;-67
2023/02/19 05:26:49;;;;;;;1.33;1.20;;;16.60;51.00;;;;;;5011615;28;20183;-66
2023/02/19 05:29:14;;;;;;;1.40;1.00;;;16.60;51.00;;;;;;5012144;28;20415;-66
2023/02/19 05:31:40;;;;;;;1.10;1.00;;;16.60;51.00;;;;;;5011401;28;20845;-67
2023/02/19 05:34:06;;;;;;;1.27;1.03;;;16.60;51.00;;;;;;5011344;28;20656;-66
2023/02/19 05:36:32;;;;;;;1.30;1.17;;;16.60;51.00;;;;;;5011698;28;20180;-66
2023/02/19 05:38:57;;;;;;;3.20;1.10;;;16.60;51.10;;;;;;5011390;28;20514;-67
2023/02/19 05:41:28;;;;;;;1.03;0.90;;;16.60;51.00;;;;;;5011093;28;20478;-66
2023/02/19 05:43:54;;;;;;;1.70;1.43;;;16.60;51.00;;;;;;5011412;28;20192;-66
2023/02/19 05:46:23;;;;;;;1.63;1.10;;;16.60;51.30;;;;;;5011338;28;20408;-66
2023/02/19 05:48:50;;;;;;;2.10;1.20;;;16.60;51.00;;;;;;5009882;28;20411;-66
2023/02/19 05:51:18;;;;;;;1.20;1.00;;;16.50;50.90;;;;;;5011366;28;20485;-66
2023/02/19 05:53:44;;;;;;;1.87;1.20;;;16.60;51.10;;;;;;5010030;28;20423;-67
2023/02/19 05:56:40;;;;;;;1.40;1.10;;;16.60;51.60;;;;;;5013487;28;20920;-67
2023/02/19 05:59:16;;;;;;;1.47;1.20;;;16.60;51.00;;;;;;5014939;28;20432;-67
2023/02/19 06:01:42;;;;;;;1.20;0.90;;;16.50;51.00;;;;;;5014932;28;20431;-67
2023/02/19 06:04:09;;;;;;;1.50;1.00;;;16.50;51.00;;;;;;5014544;28;20539;-67
2023/02/19 06:06:36;;;;;;;1.20;1.07;;;16.50;51.00;;;;;;5015015;28;20203;-67
2023/02/19 06:09:02;;;;;;;1.40;1.30;;;16.50;51.00;;;;;;5014642;28;20419;-67
2023/02/19 06:11:28;;;;;;;1.40;1.17;;;16.50;51.00;;;;;;5013305;28;20794;-68
2023/02/19 06:13:54;;;;;;;1.23;1.03;;;16.50;51.00;;;;;;5014767;28;20919;-67
2023/02/19 06:16:20;;;;;;;1.27;0.90;;;16.50;51.00;;;;;;5014578;28;20453;-68
2023/02/19 06:18:47;;;;;;;0.90;0.80;;;16.50;51.00;;;;;;5014607;28;20184;-68
2023/02/19 06:21:14;;;;;;;1.90;0.90;;;16.50;51.00;;;;;;5014549;28;20982;-67
2023/02/19 06:23:40;;;;;;;1.63;0.90;;;16.50;50.90;;;;;;5014358;28;20951;-67
2023/02/19 06:26:09;;;;;;;1.63;1.00;;;16.50;50.90;;;;;;5014398;28;20430;-67
2023/02/19 06:28:35;;;;;;;1.37;1.27;;;16.50;50.90;;;;;;5014279;28;20630;-67
2023/02/19 06:31:01;;;;;;;1.20;0.87;;;16.50;50.90;;;;;;5014226;28;20922;-68
2023/02/19 06:33:27;;;;;;;1.20;1.03;;;16.50;50.90;;;;;;5013365;28;20532;-68
2023/02/19 06:35:53;;;;;;;1.93;1.20;;;16.50;50.90;;;;;;5013861;28;20464;-65
2023/02/19 06:38:21;;;;;;;1.43;0.97;;;16.50;50.90;;;;;;5013859;28;20401;-67
2023/02/19 06:40:46;;;;;;;1.20;1.00;;;16.50;50.90;;;;;;5013903;28;20410;-67
2023/02/19 06:43:12;;;;;;;1.23;0.97;;;16.50;50.90;;;;;;5013803;28;20443;-67
2023/02/19 06:45:37;;;;;;;1.30;1.00;;;16.50;50.90;;;;;;5013987;28;20243;-68
2023/02/19 06:48:04;;;;;;;1.57;1.00;;;16.50;50.90;;;;;;5014282;28;20204;-67
2023/02/19 06:50:30;;;;;;;1.27;0.80;;;16.50;50.90;;;;;;5013749;28;20172;-67
2023/02/19 06:52:55;;;;;;;1.33;0.90;;;16.50;50.90;;;;;;5013735;28;20435;-66
2023/02/19 06:55:21;;;;;;;1.20;1.00;;;16.50;50.90;;;;;;5013934;28;20210;-65
2023/02/19 06:57:46;;;;;;;1.40;1.03;;;16.50;50.90;;;;;;5013344;28;20179;-65
2023/02/19 07:00:12;;;;;;;1.37;0.93;;;16.50;50.90;;;;;;5013581;28;20652;-65
2023/02/19 07:02:38;;;;;;;1.57;1.10;;;16.50;50.90;;;;;;5013313;28;20214;-65
2023/02/19 07:05:04;;;;;;;3.00;1.10;;;16.50;50.90;;;;;;5013194;28;20448;-66
2023/02/19 07:07:29;;;;;;;1.50;1.40;;;16.50;50.90;;;;;;5013185;28;20176;-67
2023/02/19 07:09:55;;;;;;;1.03;0.80;;;16.50;50.90;;;;;;5013519;28;20411;-65
2023/02/19 07:12:20;;;;;;;1.13;1.03;;;16.50;50.90;;;;;;5013183;28;20193;-65
2023/02/19 07:14:46;;;;;;;1.20;1.10;;;16.50;50.90;;;;;;5013256;28;20184;-65
2023/02/19 07:17:12;;;;;;;1.23;1.00;;;16.50;50.90;;;;;;5013160;28;20184;-65
2023/02/19 07:19:38;;;;;;;1.63;0.90;;;16.50;50.90;;;;;;5013763;28;20897;-68
2023/02/19 07:22:03;;;;;;;1.07;0.80;;;16.50;50.90;;;;;;5013777;28;20227;-67
2023/02/19 07:24:29;;;;;;;1.30;1.00;;;16.50;50.90;;;;;;5013095;28;20204;-67
2023/02/19 07:26:55;;;;;;;0.90;0.77;;;16.50;50.90;;;;;;5013351;28;20230;-69
2023/02/19 07:29:20;;;;;;;2.30;1.00;;;16.50;50.90;;;;;;5013330;28;20259;-69
2023/02/19 07:31:46;;;;;;;1.40;0.97;;;16.50;50.90;;;;;;5011834;28;20200;-69
2023/02/19 07:34:11;;;;;;;1.30;0.90;;;16.50;50.90;;;;;;5013030;28;20255;-69
2023/02/19 07:36:37;;;;;;;0.80;0.70;;;16.50;50.90;;;;;;5013399;28;20192;-69
2023/02/19 07:39:04;;;;;;;1.00;0.80;;;16.50;50.90;;;;;;5012818;28;20221;-69
2023/02/19 07:41:29;;;;;;;1.10;0.90;;;16.50;50.90;;;;;;5012630;28;20642;-69
2023/02/19 07:43:55;;;;;;;1.67;1.00;;;16.50;50.90;;;;;;5013171;28;20451;-69
2023/02/19 07:46:21;;;;;;;2.10;1.43;;;16.50;50.90;;;;;;5012991;28;20542;-69
2023/02/19 07:48:47;;;;;;;1.10;0.90;;;16.40;50.80;;;;;;5013015;28;20537;-69
2023/02/19 07:51:17;;;;;;;1.00;0.87;;;16.40;50.80;;;;;;5012770;28;20434;-69
2023/02/19 07:53:44;;;;;;;1.33;1.00;;;16.40;50.80;;;;;;5012667;28;20181;-69
2023/02/19 07:56:11;;;;;;;1.00;0.80;;;16.40;50.80;;;;;;5012692;28;20825;-69
2023/02/19 07:58:37;;;;;;;1.20;0.90;;;16.40;50.80;;;;;;5012577;28;20403;-69
2023/02/19 08:01:12;;;;;;;1.20;0.90;;;16.40;50.80;;;;;;5012787;28;20407;-69
2023/02/19 08:03:38;;;;;;;0.97;0.80;;;16.40;50.80;;;;;;5012673;28;20194;-69
2023/02/19 08:06:04;;;;;;;1.50;0.87;;;16.40;50.80;;;;;;5012808;28;20404;-69
2023/02/19 08:08:30;;;;;;;1.20;0.90;;;16.40;50.80;;;;;;5011980;28;20411;-63
2023/02/19 08:13:43;;;;;;;1.30;1.13;;;16.40;50.80;;;;;;5012400;28;20191;-65
2023/02/19 08:16:12;;;;;;;1.00;0.90;;;16.40;50.80;;;;;;5012015;28;20920;-65
2023/02/19 08:18:38;;;;;;;1.10;0.90;;;16.40;50.80;;;;;;5011194;28;20179;-65
2023/02/19 08:21:03;;;;;;;1.10;1.00;;;16.40;50.80;;;;;;5011915;28;20392;-65
2023/02/19 08:23:29;;;;;;;1.73;0.90;;;16.40;50.80;;;;;;5011728;28;20169;-65
2023/02/19 08:25:59;;;;;;;1.60;1.10;;;16.40;50.80;;;;;;5011869;28;20202;-65
2023/02/19 08:28:25;;;;;;;1.30;0.90;;;16.40;50.80;;;;;;5011613;28;20172;-65
2023/02/19 08:30:51;;;;;;;1.10;0.90;;;16.40;50.80;;;;;;5011530;28;20416;-65
2023/02/19 08:33:18;;;;;;;1.00;0.90;;;16.40;50.80;;;;;;5012369;28;20305;-65
2023/02/19 08:35:45;;;;;;;1.80;1.00;;;16.40;50.80;;;;;;5012297;28;20415;-65
2023/02/19 08:38:12;;;;;;;1.47;1.10;;;16.40;50.80;;;;;;5011682;28;20433;-65
2023/02/19 08:40:38;;;;;;;1.10;1.00;;;16.40;50.80;;;;;;5010496;28;20423;-65
2023/02/19 08:43:06;;;;;;;1.67;0.90;;;16.40;50.80;;;;;;5009944;28;20455;-65
2023/02/19 08:45:33;;;;;;;1.17;0.97;;;16.40;50.80;;;;;;5011451;28;20467;-65
2023/02/19 08:47:59;;;;;;;1.10;0.90;;;16.40;50.80;;;;;;5011398;28;20466;-67
2023/02/19 08:50:25;;;;;;;1.47;0.83;;;16.40;50.80;;;;;;5011871;28;20935;-67
2023/02/19 08:52:51;;;;;;;1.00;0.83;;;16.40;50.80;;;;;;5011618;28;20473;-67
2023/02/19 08:55:17;;;;;;;1.20;0.90;;;16.40;50.80;;;;;;5012300;28;20411;-67
2023/02/19 08:57:42;;;;;;;1.40;0.80;;;16.40;50.80;;;;;;5011722;28;20185;-68
2023/02/19 09:00:09;;;;;;;1.20;0.90;;;16.40;50.80;;;;;;5012205;28;20191;-67
2023/02/19 09:02:35;;;;;;;1.10;0.93;;;16.40;50.80;;;;;;5011991;28;20241;-67
2023/02/19 09:05:00;;;;;;;1.30;0.80;;;16.40;50.80;;;;;;5011765;28;20460;-67
2023/02/19 09:07:26;;;;;;;1.20;0.90;;;16.40;50.80;;;;;;5010547;28;20404;-68
2023/02/19 09:09:53;;;;;;;0.90;0.80;;;16.40;50.80;;;;;;5012130;28;20678;-67
2023/02/19 09:12:19;;;;;;;1.20;1.00;;;16.40;51.40;;;;;;5011887;28;20470;-68
2023/02/19 09:14:45;;;;;;;1.10;0.90;;;16.40;50.80;;;;;;5011786;28;20256;-67
2023/02/19 09:17:12;;;;;;;1.10;0.80;;;16.40;50.80;;;;;;5011898;28;20958;-67
2023/02/19 09:19:38;;;;;;;1.07;0.97;;;16.40;50.80;;;;;;5011859;28;20183;-67
2023/02/19 09:22:04;;;;;;;1.73;0.80;;;16.40;50.80;;;;;;5011541;28;20428;-67
2023/02/19 09:24:30;;;;;;;1.00;0.80;;;16.40;50.80;;;;;;5011613;28;20808;-67
2023/02/19 09:26:56;;;;;;;1.10;0.80;;;16.40;50.80;;;;;;5011527;28;20490;-67
2023/02/19 09:29:24;;;;;;;1.60;1.40;;;16.40;50.80;;;;;;5010147;28;20959;-66
2023/02/19 09:31:50;;;;;;;2.53;1.40;;;16.30;51.50;;;;;;5011100;28;20188;-69
2023/02/19 09:34:15;;;;;;;1.60;1.13;;;16.30;51.70;;;;;;5011038;28;20490;-67
2023/02/19 09:36:41;;;;;;;1.30;1.07;;;16.30;51.70;;;;;;5010655;28;20548;-67
2023/02/19 09:39:09;;;;;;;3.43;1.40;;;16.30;51.70;;;;;;5011294;28;20181;-69
2023/02/19 09:41:38;;;;;;;2.17;1.03;;;16.30;51.70;;;;;;5011189;28;20264;-67
2023/02/19 09:44:08;;;;;;;1.43;1.10;;;16.30;51.60;;;;;;5010581;28;20956;-67
2023/02/19 09:46:37;;;;;;;2.50;1.20;;;16.30;51.60;;;;;;5011257;28;20863;-67
2023/02/19 09:49:06;;;;;;;1.40;1.00;;;16.30;51.60;;;;;;5010571;28;20422;-67
2023/02/19 09:51:36;;;;;;;1.40;1.00;;;16.30;51.60;;;;;;5010642;28;20843;-67
2023/02/19 09:54:05;;;;;;;1.40;1.10;;;16.30;51.50;;;;;;5010632;28;20410;-67
2023/02/19 09:56:30;;;;;;;1.67;0.87;;;16.30;51.50;;;;;;5010356;28;20469;-67
2023/02/19 09:58:58;;;;;;;1.47;1.20;;;16.30;51.40;;;;;;5010487;28;20408;-67
2023/02/19 10:01:27;;;;;;;1.10;0.90;;;16.30;51.40;;;;;;5010507;28;20241;-69
2023/02/19 10:03:53;;;;;;;1.53;1.00;;;16.30;51.40;;;;;;5010997;28;20509;-69
2023/02/19 10:06:22;;;;;;;1.40;1.03;;;16.30;51.40;;;;;;5010467;28;20407;-67
2023/02/19 10:08:50;;;;;;;1.50;1.40;;;16.30;51.30;;;;;;5009042;28;20913;-67
2023/02/19 10:11:17;;;;;;;2.20;1.00;;;16.30;51.30;;;;;;5010352;28;20526;-67
2023/02/19 10:13:48;;;;;;;1.40;1.10;;;16.30;51.30;;;;;;5009441;28;20852;-68
2023/02/19 10:16:25;;;;;;;1.40;1.00;;;16.30;51.30;;;;;;5010512;28;20418;-67
2023/02/19 10:18:51;;;;;;;1.40;1.10;;;16.40;51.40;;;;;;5010596;28;20768;-68
2023/02/19 10:21:26;;;;;;;1.70;1.00;;;16.40;51.30;;;;;;5010382;28;20518;-67
2023/02/19 10:24:00;;;;;;;1.30;1.00;;;16.40;51.30;;;;;;5010496;28;20473;-66
2023/02/19 10:26:26;;;;;;;1.10;0.80;;;16.40;51.30;;;;;;5010386;28;20432;-67
2023/02/19 10:28:55;;;;;;;1.53;0.97;;;16.40;51.30;;;;;;5008780;28;20418;-66
2023/02/19 10:31:23;;;;;;;1.20;1.00;;;16.40;51.30;;;;;;5010814;28;20522;-67
2023/02/19 10:33:51;;;;;;;2.10;1.60;;;16.40;51.30;;;;;;5010335;28;20415;-66
2023/02/19 10:36:35;;;;;;;1.60;1.00;;;16.40;51.30;;;;;;5009988;28;20427;-66
2023/02/19 10:39:04;;;;;;;2.70;1.17;;;16.40;51.20;;;;;;5009128;28;20419;-66
2023/02/19 10:41:30;;;;;;;1.67;1.00;;;16.40;51.30;;;;;;5012962;28;20468;-66
2023/02/19 10:44:10;;;;;;;1.50;1.03;;;16.40;51.20;;;;;;5013392;28;20570;-66
2023/02/19 10:46:44;;;;;;;3.63;1.40;;;16.40;51.20;;;;;;5012001;28;20551;-66
2023/02/19 10:49:18;;;;;;;1.30;0.83;;;16.40;51.30;;;;;;5013766;28;20431;-68
2023/02/19 10:51:46;;;;;;;2.60;1.40;;;16.40;51.40;;;;;;5013598;28;20431;-68
2023/02/19 10:54:24;;;;;;;1.57;1.10;;;16.40;51.40;;;;;;5013465;28;20850;-67
2023/02/19 10:56:49;;;;;;;1.27;1.03;;;16.40;51.40;;;;;;5012208;28;20427;-68
2023/02/19 10:59:23;;;;;;;3.00;1.90;;;16.50;51.50;;;;;;5013783;28;20461;-66
2023/02/19 11:01:56;;;;;;;1.33;0.90;;;16.50;51.50;;;;;;5014060;28;20744;-67
2023/02/19 11:04:23;;;;;;;2.67;1.10;;;16.50;51.40;;;;;;5013758;28;20806;-68
2023/02/19 11:06:50;;;;;;;1.13;0.80;;;16.50;51.40;;;;;;5012115;28;20434;-67
2023/02/19 11:09:35;;;;;;;1.03;0.90;;;16.60;51.40;;;;;;5013358;28;20403;-68
2023/02/19 11:12:03;;;;;;;1.10;0.80;;;16.60;51.40;;;;;;5013259;28;20523;-67
2023/02/19 11:14:31;;;;;;;1.00;0.80;;;16.60;51.30;;;;;;5013307;28;20419;-67
2023/02/19 11:16:58;;;;;;;1.03;0.80;;;16.60;51.30;;;;;;5013226;28;20416;-68
2023/02/19 11:19:24;;;;;;;1.07;0.90;;;16.70;51.30;;;;;;5013122;28;20416;-67
2023/02/19 11:21:50;;;;;;;1.30;0.97;;;16.70;51.20;;;;;;5012878;28;20435;-68
2023/02/19 11:24:22;;;;;;;1.73;1.30;;;16.70;51.80;;;;;;5013286;28;20982;-68
2023/02/19 11:26:47;;;;;;;1.93;1.10;;;16.70;51.20;;;;;;5013126;28;20897;-68
2023/02/19 11:29:27;;;;;;;1.73;1.00;;;16.80;51.20;;;;;;5013072;28;20491;-68
2023/02/19 11:31:53;;;;;;;2.23;1.23;;;16.80;51.20;;;;;;5013097;28;20242;-67
2023/02/19 11:34:24;;;;;;;2.13;0.90;;;16.80;51.30;;;;;;5013126;28;20506;-68
2023/02/19 11:37:17;;;;;;;0.97;0.80;;;16.80;51.30;;;;;;5012742;28;20904;-67
2023/02/19 11:39:46;;;;;;;2.10;1.00;;;16.70;51.20;;;;;;5011678;28;20932;-67
2023/02/19 11:42:44;;;;;;;1.20;0.90;;;16.80;51.30;;;;;;5012294;28;20554;-68
2023/02/19 11:45:31;;;;;;;2.00;1.03;;;16.70;51.20;;;;;;4990316;28;20478;-67
2023/02/19 11:48:12;;;;;;;1.20;0.90;;;16.70;51.30;;;;;;5011425;28;20493;-70
2023/02/19 11:51:12;;;;;;;1.20;0.80;;;16.80;51.40;;;;;;5012628;28;20450;-68
2023/02/19 11:53:46;;;;;;;1.30;1.00;;;16.70;51.40;;;;;;4990067;28;20980;-66
2023/02/19 11:56:24;;;;;;;1.50;0.90;;;16.70;51.50;;;;;;5011298;28;20502;-67
2023/02/19 11:59:01;;;;;;;3.17;1.07;;;16.70;51.60;;;;;;5012092;28;20427;-67
2023/02/19 12:01:56;;;;;;;1.60;1.00;;;16.80;51.70;;;;;;5011014;28;20841;-67
2023/02/19 12:04:45;;;;;;;2.30;1.13;;;16.80;51.60;;;;;;5011997;28;20805;-66
2023/02/19 12:07:23;;;;;;;1.83;1.00;;;16.80;51.60;;;;;;5011977;28;20916;-66
2023/02/19 12:09:55;;;;;;;1.10;0.90;;;16.80;51.50;;;;;;5011996;28;20433;-66
2023/02/19 12:12:47;;;;;;;1.20;1.03;;;16.90;51.60;;;;;;5011784;28;20430;-66
2023/02/19 12:15:30;;;;;;;1.10;0.90;;;16.90;51.60;;;;;;5012300;28;20400;-67
2023/02/19 12:18:05;;;;;;;1.40;0.90;;;16.90;51.50;;;;;;5011994;28;20901;-67
2023/02/19 12:20:58;;;;;;;1.00;0.80;;;16.90;51.50;;;;;;5012064;28;20411;-67
2023/02/19 12:23:59;;;;;;;1.73;1.10;;;16.90;51.50;;;;;;5011857;28;20407;-67
2023/02/19 12:26:45;;;;;;;1.00;0.80;;;16.90;51.50;;;;;;5011909;28;20407;-67
2023/02/19 12:29:50;;;;;;;1.23;0.83;;;16.90;51.40;;;;;;5012093;28;20474;-67
2023/02/19 12:32:34;;;;;;;1.87;1.47;;;17.00;51.50;;;;;;5011999;28;20419;-67
2023/02/19 12:35:26;;;;;;;1.20;1.00;;;17.00;51.60;;;;;;5011716;28;20467;-67
2023/02/19 12:38:10;;;;;;;2.80;1.10;;;17.10;51.70;;;;;;5011763;28;20491;-67
2023/02/19 12:41:10;;;;;;;1.87;1.20;;;17.10;51.60;;;;;;5011519;28;20414;-67
2023/02/19 12:43:38;;;;;;;3.53;1.10;;;17.20;51.60;;;;;;5011680;28;20419;-67
2023/02/19 12:46:36;;;;;;;1.37;1.00;;;17.30;51.60;;;;;;5011548;28;20479;-67
2023/02/19 12:49:31;;;;;;;1.47;1.00;;;17.30;51.50;;;;;;5002434;28;20970;-67
2023/02/19 12:52:08;;;;;;;1.00;0.90;;;17.40;51.40;;;;;;5007805;28;20843;-67
2023/02/19 12:54:39;;;;;;;3.43;1.30;;;17.30;51.30;;;;;;5011594;28;20395;-68
2023/02/19 12:57:21;;;;;;;1.47;0.80;;;17.30;51.30;;;;;;5011150;28;20406;-67
2023/02/19 12:59:58;;;;;;;1.50;0.73;;;17.30;51.20;;;;;;5011479;28;20776;-67
2023/02/19 13:02:45;;;;;;;1.13;1.03;;;17.30;51.20;;;;;;5009865;28;20518;-67
2023/02/19 13:05:38;;;;;;;1.73;0.90;;;17.30;51.30;;;;;;5009611;28;20487;-67
2023/02/19 13:08:13;;;;;;;1.63;0.90;;;17.30;51.30;;;;;;5011193;28;20815;-68
2023/02/19 13:10:44;;;;;;;2.13;1.23;;;17.30;51.30;;;;;;5009903;28;20422;-67
2023/02/19 13:13:18;;;;;;;1.27;0.80;;;17.30;51.30;;;;;;5010842;28;20431;-68
2023/02/19 13:15:49;;;;;;;1.30;1.03;;;17.30;51.30;;;;;;5010993;28;20439;-68
2023/02/19 13:18:23;;;;;;;1.10;0.80;;;17.20;51.30;;;;;;5011322;28;20427;-67
2023/02/19 13:20:50;;;;;;;2.73;0.90;;;17.20;51.30;;;;;;5011076;28;20404;-67
2023/02/19 13:26:36;;;;;;;3.03;0.70;;;17.20;51.30;;;;;;5011415;28;20454;-67
2023/02/19 13:29:07;;;;;;;1.47;0.90;;;17.20;51.40;;;;;;5010988;28;20541;-67
2023/02/19 13:31:45;;;;;;;3.10;1.00;;;17.20;51.40;;;;;;5011004;28;20910;-67
2023/02/19 13:34:17;;;;;;;1.40;0.90;;;17.20;51.40;;;;;;5010669;28;20411;-68
2023/02/19 13:36:43;;;;;;;2.70;1.13;;;17.20;51.40;;;;;;5010706;28;20422;-67